sensor_id;sensor_type;location;lat;lon;timestamp;P1;durP1;ratioP1;P2;durP2;ratioP2
35757;SDS011;21879;50.110;18.900;2023-07-29T00:07:13;2.50;;;1.80;;
35757;SDS011;21879;50.110;18.900;2023-07-29T00:17:40;2.50;;;2.10;;
35757;SDS011;21879;50.110;18.900;2023-07-29T00:28:08;3.10;;;2.20;;
35757;SDS011;21879;50.110;18.900;2023-07-29T00:38:36;4.60;;;2.70;;
35757;SDS011;21879;50.110;18.900;2023-07-29T00:49:04;6.90;;;5.40;;
35757;SDS011;21879;50.110;18.900;2023-07-29T00:59:31;6.00;;;5.20;;
35757;SDS011;21879;50.110;18.900;2023-07-29T01:10:01;5.30;;;4.00;;
35757;SDS011;21879;50.110;18.900;2023-07-29T01:20:34;6.20;;;4.40;;
35757;SDS011;21879;50.110;18.900;2023-07-29T01:31:07;5.50;;;3.80;;
35757;SDS011;21879;50.110;18.900;2023-07-29T01:41:39;5.20;;;3.60;;
35757;SDS011;21879;50.110;18.900;2023-07-29T01:52:08;6.80;;;4.10;;
35757;SDS011;21879;50.110;18.900;2023-07-29T02:02:36;6.30;;;5.10;;
35757;SDS011;21879;50.110;18.900;2023-07-29T02:13:04;6.10;;;4.50;;
35757;SDS011;21879;50.110;18.900;2023-07-29T02:23:32;7.40;;;4.50;;
35757;SDS011;21879;50.110;18.900;2023-07-29T02:33:59;6.10;;;3.90;;
35757;SDS011;21879;50.110;18.900;2023-07-29T02:44:27;7.30;;;4.40;;
35757;SDS011;21879;50.110;18.900;2023-07-29T02:54:54;5.40;;;4.10;;
35757;SDS011;21879;50.110;18.900;2023-07-29T03:05:22;4.90;;;3.30;;
35757;SDS011;21879;50.110;18.900;2023-07-29T03:15:50;7.40;;;3.50;;
35757;SDS011;21879;50.110;18.900;2023-07-29T03:26:19;5.60;;;3.40;;
35757;SDS011;21879;50.110;18.900;2023-07-29T03:36:47;5.60;;;3.50;;
35757;SDS011;21879;50.110;18.900;2023-07-29T03:47:16;4.60;;;3.50;;
35757;SDS011;21879;50.110;18.900;2023-07-29T03:57:45;8.60;;;5.20;;
35757;SDS011;21879;50.110;18.900;2023-07-29T04:08:13;7.30;;;4.30;;
35757;SDS011;21879;50.110;18.900;2023-07-29T04:18:41;9.50;;;4.60;;
35757;SDS011;21879;50.110;18.900;2023-07-29T04:29:10;4.50;;;3.40;;
35757;SDS011;21879;50.110;18.900;2023-07-29T04:39:38;8.10;;;5.00;;
35757;SDS011;21879;50.110;18.900;2023-07-29T04:50:08;5.80;;;4.00;;
35757;SDS011;21879;50.110;18.900;2023-07-29T05:00:36;7.00;;;4.70;;
35757;SDS011;21879;50.110;18.900;2023-07-29T05:11:04;7.90;;;4.60;;
35757;SDS011;21879;50.110;18.900;2023-07-29T05:21:31;6.00;;;4.50;;
35757;SDS011;21879;50.110;18.900;2023-07-29T05:32:02;8.50;;;5.50;;
35757;SDS011;21879;50.110;18.900;2023-07-29T05:42:31;5.50;;;4.30;;
35757;SDS011;21879;50.110;18.900;2023-07-29T05:52:58;6.00;;;4.10;;
35757;SDS011;21879;50.110;18.900;2023-07-29T06:03:26;6.10;;;4.40;;
35757;SDS011;21879;50.110;18.900;2023-07-29T06:13:54;7.40;;;4.70;;
35757;SDS011;21879;50.110;18.900;2023-07-29T06:24:21;6.60;;;4.00;;
35757;SDS011;21879;50.110;18.900;2023-07-29T06:34:49;5.00;;;2.80;;
35757;SDS011;21879;50.110;18.900;2023-07-29T06:45:18;7.00;;;3.80;;
35757;SDS011;21879;50.110;18.900;2023-07-29T06:55:46;5.50;;;3.10;;
35757;SDS011;21879;50.110;18.900;2023-07-29T07:06:13;4.70;;;3.00;;
35757;SDS011;21879;50.110;18.900;2023-07-29T07:16:41;6.70;;;3.40;;
35757;SDS011;21879;50.110;18.900;2023-07-29T07:27:10;5.00;;;3.80;;
35757;SDS011;21879;50.110;18.900;2023-07-29T07:37:38;7.30;;;3.90;;
35757;SDS011;21879;50.110;18.900;2023-07-29T07:48:06;4.10;;;3.60;;
35757;SDS011;21879;50.110;18.900;2023-07-29T07:58:35;3.50;;;3.10;;
35757;SDS011;21879;50.110;18.900;2023-07-29T08:09:03;3.00;;;2.20;;
35757;SDS011;21879;50.110;18.900;2023-07-29T08:19:31;5.60;;;2.60;;
35757;SDS011;21879;50.110;18.900;2023-07-29T08:30:00;3.60;;;2.00;;
35757;SDS011;21879;50.110;18.900;2023-07-29T08:40:28;4.20;;;2.70;;
35757;SDS011;21879;50.110;18.900;2023-07-29T08:50:58;4.60;;;2.90;;
35757;SDS011;21879;50.110;18.900;2023-07-29T09:01:26;4.30;;;2.20;;
35757;SDS011;21879;50.110;18.900;2023-07-29T09:11:55;4.30;;;2.60;;
35757;SDS011;21879;50.110;18.900;2023-07-29T09:22:23;5.00;;;2.30;;
35757;SDS011;21879;50.110;18.900;2023-07-29T09:32:54;3.50;;;2.60;;
35757;SDS011;21879;50.110;18.900;2023-07-29T09:43:24;4.60;;;2.90;;
35757;SDS011;21879;50.110;18.900;2023-07-29T09:53:55;4.00;;;2.20;;
35757;SDS011;21879;50.110;18.900;2023-07-29T10:04:23;4.70;;;3.40;;
35757;SDS011;21879;50.110;18.900;2023-07-29T10:14:52;4.10;;;2.60;;
35757;SDS011;21879;50.110;18.900;2023-07-29T10:25:22;3.30;;;2.40;;
35757;SDS011;21879;50.110;18.900;2023-07-29T10:35:52;3.90;;;2.60;;
35757;SDS011;21879;50.110;18.900;2023-07-29T10:46:21;5.10;;;2.60;;
35757;SDS011;21879;50.110;18.900;2023-07-29T10:56:50;3.10;;;2.20;;
35757;SDS011;21879;50.110;18.900;2023-07-29T11:07:21;3.00;;;2.20;;
35757;SDS011;21879;50.110;18.900;2023-07-29T11:17:52;2.60;;;2.40;;
35757;SDS011;21879;50.110;18.900;2023-07-29T11:28:21;2.20;;;2.00;;
35757;SDS011;21879;50.110;18.900;2023-07-29T11:38:50;2.30;;;2.10;;
35757;SDS011;21879;50.110;18.900;2023-07-29T11:49:18;4.00;;;2.70;;
35757;SDS011;21879;50.110;18.900;2023-07-29T11:59:46;2.50;;;2.30;;
35757;SDS011;21879;50.110;18.900;2023-07-29T12:10:14;2.30;;;1.80;;
35757;SDS011;21879;50.110;18.900;2023-07-29T12:20:42;2.60;;;2.20;;
35757;SDS011;21879;50.110;18.900;2023-07-29T12:31:10;2.70;;;2.10;;
35757;SDS011;21879;50.110;18.900;2023-07-29T12:41:37;2.20;;;1.60;;
35757;SDS011;21879;50.110;18.900;2023-07-29T12:52:05;1.50;;;1.20;;
35757;SDS011;21879;50.110;18.900;2023-07-29T13:02:33;1.70;;;1.20;;
35757;SDS011;21879;50.110;18.900;2023-07-29T13:13:01;2.20;;;1.40;;
35757;SDS011;21879;50.110;18.900;2023-07-29T13:23:28;1.70;;;1.40;;
35757;SDS011;21879;50.110;18.900;2023-07-29T13:33:56;2.00;;;1.40;;
35757;SDS011;21879;50.110;18.900;2023-07-29T13:44:23;1.60;;;1.30;;
35757;SDS011;21879;50.110;18.900;2023-07-29T13:54:51;1.60;;;1.30;;
35757;SDS011;21879;50.110;18.900;2023-07-29T14:05:18;2.30;;;1.20;;
35757;SDS011;21879;50.110;18.900;2023-07-29T14:15:46;2.00;;;1.50;;
35757;SDS011;21879;50.110;18.900;2023-07-29T14:26:14;1.80;;;1.20;;
35757;SDS011;21879;50.110;18.900;2023-07-29T14:36:41;3.10;;;1.60;;
35757;SDS011;21879;50.110;18.900;2023-07-29T14:47:09;2.50;;;1.60;;
35757;SDS011;21879;50.110;18.900;2023-07-29T14:57:37;2.20;;;1.70;;
35757;SDS011;21879;50.110;18.900;2023-07-29T15:08:06;2.70;;;1.90;;
35757;SDS011;21879;50.110;18.900;2023-07-29T15:18:33;2.70;;;1.20;;
35757;SDS011;21879;50.110;18.900;2023-07-29T15:29:01;1.90;;;1.10;;
35757;SDS011;21879;50.110;18.900;2023-07-29T15:39:29;2.10;;;1.40;;
35757;SDS011;21879;50.110;18.900;2023-07-29T15:49:57;2.00;;;1.50;;
35757;SDS011;21879;50.110;18.900;2023-07-29T16:00:24;2.90;;;1.10;;
35757;SDS011;21879;50.110;18.900;2023-07-29T16:10:53;2.00;;;1.30;;
35757;SDS011;21879;50.110;18.900;2023-07-29T16:21:21;2.00;;;1.60;;
35757;SDS011;21879;50.110;18.900;2023-07-29T16:31:48;2.10;;;1.20;;
35757;SDS011;21879;50.110;18.900;2023-07-29T16:42:16;1.50;;;1.00;;
35757;SDS011;21879;50.110;18.900;2023-07-29T16:52:44;2.60;;;1.20;;
35757;SDS011;21879;50.110;18.900;2023-07-29T17:03:13;3.20;;;1.50;;
35757;SDS011;21879;50.110;18.900;2023-07-29T17:13:43;5.00;;;1.00;;
35757;SDS011;21879;50.110;18.900;2023-07-29T17:24:10;1.20;;;0.70;;
35757;SDS011;21879;50.110;18.900;2023-07-29T17:34:37;3.60;;;1.30;;
35757;SDS011;21879;50.110;18.900;2023-07-29T17:45:06;0.60;;;0.60;;
35757;SDS011;21879;50.110;18.900;2023-07-29T17:55:36;1.90;;;1.20;;
35757;SDS011;21879;50.110;18.900;2023-07-29T18:06:11;4.60;;;2.40;;
35757;SDS011;21879;50.110;18.900;2023-07-29T18:16:39;3.90;;;1.80;;
35757;SDS011;21879;50.110;18.900;2023-07-29T18:27:07;6.50;;;2.40;;
35757;SDS011;21879;50.110;18.900;2023-07-29T18:37:35;3.70;;;1.40;;
35757;SDS011;21879;50.110;18.900;2023-07-29T18:48:03;4.40;;;1.80;;
35757;SDS011;21879;50.110;18.900;2023-07-29T18:58:31;9.70;;;2.00;;
35757;SDS011;21879;50.110;18.900;2023-07-29T19:08:59;4.50;;;2.70;;
35757;SDS011;21879;50.110;18.900;2023-07-29T19:19:26;6.40;;;2.40;;
35757;SDS011;21879;50.110;18.900;2023-07-29T19:29:54;4.80;;;3.30;;
35757;SDS011;21879;50.110;18.900;2023-07-29T19:40:22;4.80;;;3.00;;
35757;SDS011;21879;50.110;18.900;2023-07-29T19:50:50;2.40;;;1.30;;
35757;SDS011;21879;50.110;18.900;2023-07-29T20:01:17;4.30;;;2.30;;
35757;SDS011;21879;50.110;18.900;2023-07-29T20:11:45;2.90;;;1.80;;
35757;SDS011;21879;50.110;18.900;2023-07-29T20:22:12;4.60;;;1.90;;
35757;SDS011;21879;50.110;18.900;2023-07-29T20:32:40;2.80;;;1.80;;
35757;SDS011;21879;50.110;18.900;2023-07-29T20:43:08;2.40;;;1.50;;
35757;SDS011;21879;50.110;18.900;2023-07-29T20:53:36;2.60;;;1.60;;
35757;SDS011;21879;50.110;18.900;2023-07-29T21:04:03;3.40;;;1.40;;
35757;SDS011;21879;50.110;18.900;2023-07-29T21:36:56;5.20;;;2.90;;
35757;SDS011;21879;50.110;18.900;2023-07-29T21:47:24;4.10;;;2.10;;
35757;SDS011;21879;50.110;18.900;2023-07-29T21:57:53;3.20;;;1.90;;
35757;SDS011;21879;50.110;18.900;2023-07-29T22:08:21;2.90;;;2.10;;
35757;SDS011;21879;50.110;18.900;2023-07-29T22:18:49;3.50;;;2.20;;
35757;SDS011;21879;50.110;18.900;2023-07-29T22:29:16;3.40;;;2.00;;
35757;SDS011;21879;50.110;18.900;2023-07-29T22:39:44;3.10;;;2.00;;
35757;SDS011;21879;50.110;18.900;2023-07-29T22:50:13;3.40;;;2.00;;
35757;SDS011;21879;50.110;18.900;2023-07-29T23:00:40;4.10;;;2.20;;
35757;SDS011;21879;50.110;18.900;2023-07-29T23:11:08;4.00;;;2.40;;
35757;SDS011;21879;50.110;18.900;2023-07-29T23:21:36;5.20;;;2.00;;
35757;SDS011;21879;50.110;18.900;2023-07-29T23:32:04;3.40;;;2.30;;
35757;SDS011;21879;50.110;18.900;2023-07-29T23:42:32;3.10;;;2.10;;
35757;SDS011;21879;50.110;18.900;2023-07-29T23:53:01;3.90;;;1.80;;
